sensor_id;sensor_type;location;lat;lon;timestamp;pressure;altitude;pressure_sealevel;temperature;humidity
48553;BME280;34335;51.566;6.994;2023-09-19T00:01:49;100144.47;;;15.43;100.00
48553;BME280;34335;51.566;6.994;2023-09-19T00:04:14;100152.34;;;15.43;100.00
48553;BME280;34335;51.566;6.994;2023-09-19T00:06:40;100140.16;;;15.40;100.00
48553;BME280;34335;51.566;6.994;2023-09-19T00:09:05;100148.34;;;15.30;100.00
48553;BME280;34335;51.566;6.994;2023-09-19T00:11:30;100150.75;;;15.37;100.00
48553;BME280;34335;51.566;6.994;2023-09-19T00:13:56;100157.88;;;15.32;100.00
48553;BME280;34335;51.566;6.994;2023-09-19T00:16:21;100159.66;;;15.32;100.00
48553;BME280;34335;51.566;6.994;2023-09-19T00:18:47;100163.22;;;15.29;100.00
48553;BME280;34335;51.566;6.994;2023-09-19T00:21:12;100159.81;;;15.25;100.00
48553;BME280;34335;51.566;6.994;2023-09-19T00:23:38;100171.38;;;15.18;100.00
48553;BME280;34335;51.566;6.994;2023-09-19T00:26:03;100167.72;;;15.24;100.00
48553;BME280;34335;51.566;6.994;2023-09-19T00:28:29;100169.66;;;15.17;100.00
48553;BME280;34335;51.566;6.994;2023-09-19T00:30:54;100175.72;;;15.19;100.00
48553;BME280;34335;51.566;6.994;2023-09-19T00:33:20;100177.63;;;15.14;100.00
48553;BME280;34335;51.566;6.994;2023-09-19T00:35:52;100172.47;;;15.11;100.00
48553;BME280;34335;51.566;6.994;2023-09-19T00:38:19;100170.56;;;15.16;100.00
48553;BME280;34335;51.566;6.994;2023-09-19T00:40:45;100163.66;;;15.14;100.00
48553;BME280;34335;51.566;6.994;2023-09-19T00:43:10;100177.00;;;15.04;100.00
48553;BME280;34335;51.566;6.994;2023-09-19T00:45:37;100170.03;;;15.05;100.00
48553;BME280;34335;51.566;6.994;2023-09-19T00:48:02;100176.13;;;15.05;100.00
48553;BME280;34335;51.566;6.994;2023-09-19T00:50:28;100171.06;;;14.98;100.00
48553;BME280;34335;51.566;6.994;2023-09-19T00:52:54;100179.00;;;14.96;100.00
48553;BME280;34335;51.566;6.994;2023-09-19T00:55:20;100182.50;;;14.95;100.00
48553;BME280;34335;51.566;6.994;2023-09-19T00:57:45;100195.66;;;14.93;100.00
48553;BME280;34335;51.566;6.994;2023-09-19T01:00:11;100190.47;;;14.90;100.00
48553;BME280;34335;51.566;6.994;2023-09-19T01:02:36;100188.84;;;14.86;100.00
48553;BME280;34335;51.566;6.994;2023-09-19T01:05:02;100193.19;;;14.87;100.00
48553;BME280;34335;51.566;6.994;2023-09-19T01:07:29;100200.31;;;14.82;100.00
48553;BME280;34335;51.566;6.994;2023-09-19T01:09:57;100201.16;;;14.83;100.00
48553;BME280;34335;51.566;6.994;2023-09-19T01:12:30;100198.63;;;14.79;100.00
48553;BME280;34335;51.566;6.994;2023-09-19T01:15:06;100197.81;;;14.77;100.00
48553;BME280;34335;51.566;6.994;2023-09-19T01:18:31;100209.22;;;14.75;100.00
48553;BME280;34335;51.566;6.994;2023-09-19T01:23:21;100211.97;;;14.70;100.00
48553;BME280;34335;51.566;6.994;2023-09-19T01:30:57;100221.69;;;14.63;100.00
48553;BME280;34335;51.566;6.994;2023-09-19T01:33:23;100225.31;;;14.58;100.00
48553;BME280;34335;51.566;6.994;2023-09-19T01:35:49;100223.72;;;14.52;100.00
48553;BME280;34335;51.566;6.994;2023-09-19T01:38:14;100223.66;;;14.55;100.00
48553;BME280;34335;51.566;6.994;2023-09-19T01:40:43;100231.53;;;14.54;100.00
48553;BME280;34335;51.566;6.994;2023-09-19T01:43:20;100236.88;;;14.49;100.00
48553;BME280;34335;51.566;6.994;2023-09-19T01:48:29;100237.91;;;14.42;100.00
48553;BME280;34335;51.566;6.994;2023-09-19T01:51:09;100240.53;;;14.42;100.00
48553;BME280;34335;51.566;6.994;2023-09-19T01:53:42;100246.72;;;14.39;100.00
48553;BME280;34335;51.566;6.994;2023-09-19T01:56:12;100238.88;;;14.39;100.00
48553;BME280;34335;51.566;6.994;2023-09-19T01:58:49;100236.34;;;14.34;100.00
48553;BME280;34335;51.566;6.994;2023-09-19T02:01:19;100250.38;;;14.30;100.00
48553;BME280;34335;51.566;6.994;2023-09-19T02:03:46;100246.94;;;14.28;100.00
48553;BME280;34335;51.566;6.994;2023-09-19T02:06:16;100245.28;;;14.26;100.00
48553;BME280;34335;51.566;6.994;2023-09-19T02:09:01;100253.22;;;14.23;100.00
48553;BME280;34335;51.566;6.994;2023-09-19T02:11:26;100250.66;;;14.20;100.00
48553;BME280;34335;51.566;6.994;2023-09-19T02:13:52;100255.81;;;14.23;100.00
48553;BME280;34335;51.566;6.994;2023-09-19T02:16:17;100259.34;;;14.20;100.00
48553;BME280;34335;51.566;6.994;2023-09-19T02:18:43;100255.22;;;14.11;100.00
48553;BME280;34335;51.566;6.994;2023-09-19T02:21:08;100270.00;;;14.11;100.00
48553;BME280;34335;51.566;6.994;2023-09-19T02:23:33;100261.28;;;14.12;100.00
48553;BME280;34335;51.566;6.994;2023-09-19T02:25:59;100268.22;;;14.13;100.00
48553;BME280;34335;51.566;6.994;2023-09-19T02:28:24;100265.66;;;14.11;100.00
48553;BME280;34335;51.566;6.994;2023-09-19T02:30:49;100264.78;;;14.11;100.00
48553;BME280;34335;51.566;6.994;2023-09-19T02:33:15;100278.00;;;14.05;100.00
48553;BME280;34335;51.566;6.994;2023-09-19T02:35:40;100278.84;;;14.07;100.00
48553;BME280;34335;51.566;6.994;2023-09-19T02:38:06;100275.41;;;14.05;100.00
48553;BME280;34335;51.566;6.994;2023-09-19T02:40:31;100271.00;;;14.05;100.00
48553;BME280;34335;51.566;6.994;2023-09-19T02:42:57;100275.44;;;14.01;100.00
48553;BME280;34335;51.566;6.994;2023-09-19T02:45:22;100278.97;;;14.00;100.00
48553;BME280;34335;51.566;6.994;2023-09-19T02:47:48;100286.75;;;14.03;100.00
48553;BME280;34335;51.566;6.994;2023-09-19T02:50:14;100286.00;;;13.98;100.00
48553;BME280;34335;51.566;6.994;2023-09-19T02:52:41;100292.97;;;13.98;100.00
48553;BME280;34335;51.566;6.994;2023-09-19T02:55:07;100300.00;;;13.94;100.00
48553;BME280;34335;51.566;6.994;2023-09-19T02:57:32;100289.63;;;13.91;100.00
48553;BME280;34335;51.566;6.994;2023-09-19T02:59:58;100290.50;;;13.90;100.00
48553;BME280;34335;51.566;6.994;2023-09-19T03:02:23;100297.47;;;13.91;100.00
48553;BME280;34335;51.566;6.994;2023-09-19T03:04:49;100295.63;;;13.95;100.00
48553;BME280;34335;51.566;6.994;2023-09-19T03:07:14;100301.78;;;13.92;100.00
48553;BME280;34335;51.566;6.994;2023-09-19T03:09:39;100302.78;;;13.86;100.00
48553;BME280;34335;51.566;6.994;2023-09-19T03:12:05;100301.97;;;13.84;100.00
48553;BME280;34335;51.566;6.994;2023-09-19T03:14:30;100308.16;;;13.80;100.00
48553;BME280;34335;51.566;6.994;2023-09-19T03:16:55;100300.34;;;13.79;100.00
48553;BME280;34335;51.566;6.994;2023-09-19T03:19:20;100301.16;;;13.82;100.00
48553;BME280;34335;51.566;6.994;2023-09-19T03:21:46;100306.44;;;13.79;100.00
48553;BME280;34335;51.566;6.994;2023-09-19T03:24:11;100306.44;;;13.79;100.00
48553;BME280;34335;51.566;6.994;2023-09-19T03:26:36;100303.75;;;13.82;100.00
48553;BME280;34335;51.566;6.994;2023-09-19T03:29:04;100310.81;;;13.79;100.00
48553;BME280;34335;51.566;6.994;2023-09-19T03:31:30;100305.56;;;13.79;100.00
48553;BME280;34335;51.566;6.994;2023-09-19T03:33:55;100315.16;;;13.78;100.00
48553;BME280;34335;51.566;6.994;2023-09-19T03:36:20;100316.91;;;13.78;100.00
48553;BME280;34335;51.566;6.994;2023-09-19T03:38:46;100318.78;;;13.71;100.00
48553;BME280;34335;51.566;6.994;2023-09-19T03:41:11;100326.69;;;13.69;100.00
48553;BME280;34335;51.566;6.994;2023-09-19T03:43:36;100318.78;;;13.71;100.00
48553;BME280;34335;51.566;6.994;2023-09-19T03:46:02;100317.16;;;13.65;100.00
48553;BME280;34335;51.566;6.994;2023-09-19T03:48:30;100320.63;;;13.66;100.00
48553;BME280;34335;51.566;6.994;2023-09-19T03:50:55;100319.81;;;13.62;100.00
48553;BME280;34335;51.566;6.994;2023-09-19T03:53:21;100317.28;;;13.59;100.00
48553;BME280;34335;51.566;6.994;2023-09-19T03:55:46;100309.38;;;13.62;100.00
48553;BME280;34335;51.566;6.994;2023-09-19T03:58:11;100308.56;;;13.59;100.00
48553;BME280;34335;51.566;6.994;2023-09-19T04:00:37;100310.47;;;13.50;100.00
48553;BME280;34335;51.566;6.994;2023-09-19T04:03:02;100313.00;;;13.55;100.00
48553;BME280;34335;51.566;6.994;2023-09-19T04:05:27;100313.13;;;13.49;100.00
48553;BME280;34335;51.566;6.994;2023-09-19T04:07:53;100309.56;;;13.53;100.00
48553;BME280;34335;51.566;6.994;2023-09-19T04:10:18;100309.59;;;13.51;100.00
48553;BME280;34335;51.566;6.994;2023-09-19T04:12:53;100307.78;;;13.55;100.00
48553;BME280;34335;51.566;6.994;2023-09-19T04:15:19;100303.47;;;13.52;100.00
48553;BME280;34335;51.566;6.994;2023-09-19T04:17:44;100304.41;;;13.48;100.00
48553;BME280;34335;51.566;6.994;2023-09-19T04:20:10;100318.28;;;13.52;100.00
48553;BME280;34335;51.566;6.994;2023-09-19T04:22:35;100304.50;;;13.45;100.00
48553;BME280;34335;51.566;6.994;2023-09-19T04:25:00;100309.81;;;13.40;100.00
48553;BME280;34335;51.566;6.994;2023-09-19T04:27:26;100300.25;;;13.39;100.00
48553;BME280;34335;51.566;6.994;2023-09-19T04:29:51;100309.81;;;13.40;100.00
48553;BME280;34335;51.566;6.994;2023-09-19T04:32:16;100311.53;;;13.40;100.00
48553;BME280;34335;51.566;6.994;2023-09-19T04:34:41;100316.69;;;13.45;100.00
48553;BME280;34335;51.566;6.994;2023-09-19T04:37:07;100315.78;;;13.46;100.00
48553;BME280;34335;51.566;6.994;2023-09-19T04:39:32;100312.25;;;13.48;100.00
48553;BME280;34335;51.566;6.994;2023-09-19T04:41:57;100312.34;;;13.44;100.00
48553;BME280;34335;51.566;6.994;2023-09-19T04:44:22;100315.88;;;13.41;100.00
48553;BME280;34335;51.566;6.994;2023-09-19T04:46:48;100309.69;;;13.47;100.00
48553;BME280;34335;51.566;6.994;2023-09-19T04:49:13;100319.28;;;13.46;100.00
48553;BME280;34335;51.566;6.994;2023-09-19T04:51:39;100314.03;;;13.48;100.00
48553;BME280;34335;51.566;6.994;2023-09-19T04:54:05;100313.97;;;13.51;100.00
48553;BME280;34335;51.566;6.994;2023-09-19T04:56:30;100325.22;;;13.53;100.00
48553;BME280;34335;51.566;6.994;2023-09-19T04:58:55;100325.31;;;13.50;100.00
48553;BME280;34335;51.566;6.994;2023-09-19T05:01:20;100328.72;;;13.53;100.00
48553;BME280;34335;51.566;6.994;2023-09-19T05:03:46;100333.91;;;13.55;100.00
48553;BME280;34335;51.566;6.994;2023-09-19T05:06:11;100339.13;;;13.55;100.00
48553;BME280;34335;51.566;6.994;2023-09-19T05:08:36;100340.09;;;13.49;100.00
48553;BME280;34335;51.566;6.994;2023-09-19T05:11:02;100351.53;;;13.44;100.00
48553;BME280;34335;51.566;6.994;2023-09-19T05:13:27;100348.91;;;13.45;100.00
48553;BME280;34335;51.566;6.994;2023-09-19T05:15:52;100346.31;;;13.44;100.00
48553;BME280;34335;51.566;6.994;2023-09-19T05:18:18;100361.97;;;13.44;100.00
48553;BME280;34335;51.566;6.994;2023-09-19T05:20:43;100365.38;;;13.49;100.00
48553;BME280;34335;51.566;6.994;2023-09-19T05:23:08;100368.00;;;13.47;100.00
48553;BME280;34335;51.566;6.994;2023-09-19T05:25:35;100371.50;;;13.48;100.00
48553;BME280;34335;51.566;6.994;2023-09-19T05:28:03;100374.94;;;13.48;100.00
48553;BME280;34335;51.566;6.994;2023-09-19T05:30:29;100373.19;;;13.50;100.00
48553;BME280;34335;51.566;6.994;2023-09-19T05:32:54;100390.63;;;13.50;100.00
48553;BME280;34335;51.566;6.994;2023-09-19T05:35:20;100387.13;;;13.49;100.00
48553;BME280;34335;51.566;6.994;2023-09-19T05:37:46;100397.50;;;13.54;100.00
48553;BME280;34335;51.566;6.994;2023-09-19T05:40:11;100403.56;;;13.56;100.00
48553;BME280;34335;51.566;6.994;2023-09-19T05:42:37;100403.44;;;13.64;100.00
48553;BME280;34335;51.566;6.994;2023-09-19T05:45:03;100401.66;;;13.64;100.00
48553;BME280;34335;51.566;6.994;2023-09-19T05:47:29;100410.34;;;13.66;100.00
48553;BME280;34335;51.566;6.994;2023-09-19T05:49:54;100398.03;;;13.73;100.00
48553;BME280;34335;51.566;6.994;2023-09-19T05:52:19;100398.91;;;13.72;100.00
48553;BME280;34335;51.566;6.994;2023-09-19T05:54:44;100406.75;;;13.72;100.00
48553;BME280;34335;51.566;6.994;2023-09-19T05:57:10;100412.81;;;13.74;100.00
48553;BME280;34335;51.566;6.994;2023-09-19T05:59:35;100412.75;;;13.77;100.00
48553;BME280;34335;51.566;6.994;2023-09-19T06:02:00;100399.66;;;13.79;100.00
48553;BME280;34335;51.566;6.994;2023-09-19T06:04:25;100400.47;;;13.82;100.00
48553;BME280;34335;51.566;6.994;2023-09-19T06:06:51;100401.31;;;13.83;100.00
48553;BME280;34335;51.566;6.994;2023-09-19T06:09:16;100395.91;;;13.94;100.00
48553;BME280;34335;51.566;6.994;2023-09-19T06:11:42;100391.47;;;13.96;100.00
48553;BME280;34335;51.566;6.994;2023-09-19T06:14:07;100392.34;;;13.95;100.00
48553;BME280;34335;51.566;6.994;2023-09-19T06:16:32;100394.06;;;13.97;100.00
48553;BME280;34335;51.566;6.994;2023-09-19T06:18:58;100393.19;;;13.98;100.00
48553;BME280;34335;51.566;6.994;2023-09-19T06:21:23;100397.50;;;13.99;100.00
48553;BME280;34335;51.566;6.994;2023-09-19T06:23:48;100405.31;;;14.01;100.00
48553;BME280;34335;51.566;6.994;2023-09-19T06:26:14;100410.50;;;14.04;100.00
48553;BME280;34335;51.566;6.994;2023-09-19T06:28:40;100408.69;;;14.06;100.00
48553;BME280;34335;51.566;6.994;2023-09-19T06:31:05;100401.66;;;14.10;100.00
48553;BME280;34335;51.566;6.994;2023-09-19T06:33:30;100392.03;;;14.12;100.00
48553;BME280;34335;51.566;6.994;2023-09-19T06:35:55;100399.84;;;14.13;100.00
48553;BME280;34335;51.566;6.994;2023-09-19T06:38:21;100394.63;;;14.13;100.00
48553;BME280;34335;51.566;6.994;2023-09-19T06:40:46;100405.00;;;14.16;100.00
48553;BME280;34335;51.566;6.994;2023-09-19T06:43:11;100398.06;;;14.15;100.00
48553;BME280;34335;51.566;6.994;2023-09-19T06:45:37;100404.91;;;14.21;100.00
48553;BME280;34335;51.566;6.994;2023-09-19T06:48:02;100413.63;;;14.22;100.00
48553;BME280;34335;51.566;6.994;2023-09-19T06:50:27;100421.47;;;14.22;100.00
48553;BME280;34335;51.566;6.994;2023-09-19T06:52:54;100420.50;;;14.27;100.00
48553;BME280;34335;51.566;6.994;2023-09-19T06:55:20;100422.28;;;14.25;100.00
48553;BME280;34335;51.566;6.994;2023-09-19T06:57:46;100424.84;;;14.27;100.00
48553;BME280;34335;51.566;6.994;2023-09-19T07:00:13;100424.75;;;14.31;100.00
48553;BME280;34335;51.566;6.994;2023-09-19T07:02:42;100426.53;;;14.29;100.00
48553;BME280;34335;51.566;6.994;2023-09-19T07:05:07;100424.75;;;14.31;100.00
48553;BME280;34335;51.566;6.994;2023-09-19T07:07:33;100442.03;;;14.39;100.00
48553;BME280;34335;51.566;6.994;2023-09-19T07:09:58;100433.28;;;14.40;100.00
48553;BME280;34335;51.566;6.994;2023-09-19T07:12:23;100426.34;;;14.39;100.00
48553;BME280;34335;51.566;6.994;2023-09-19T07:14:49;100428.84;;;14.43;100.00
48553;BME280;34335;51.566;6.994;2023-09-19T07:17:14;100434.97;;;14.44;100.00
48553;BME280;34335;51.566;6.994;2023-09-19T07:19:39;100440.06;;;14.50;100.00
48553;BME280;34335;51.566;6.994;2023-09-19T07:22:04;100437.38;;;14.53;100.00
48553;BME280;34335;51.566;6.994;2023-09-19T07:24:30;100441.72;;;14.54;100.00
48553;BME280;34335;51.566;6.994;2023-09-19T07:26:55;100432.94;;;14.57;100.00
48553;BME280;34335;51.566;6.994;2023-09-19T07:29:20;100436.25;;;14.67;100.00
48553;BME280;34335;51.566;6.994;2023-09-19T07:31:46;100444.09;;;14.65;100.00
48553;BME280;34335;51.566;6.994;2023-09-19T07:34:11;100444.03;;;14.70;100.00
48553;BME280;34335;51.566;6.994;2023-09-19T07:36:36;100440.50;;;14.71;100.00
48553;BME280;34335;51.566;6.994;2023-09-19T07:39:01;100437.75;;;14.77;100.00
48553;BME280;34335;51.566;6.994;2023-09-19T07:41:32;100445.75;;;14.71;100.00
48553;BME280;34335;51.566;6.994;2023-09-19T07:43:57;100447.25;;;14.81;100.00
48553;BME280;34335;51.566;6.994;2023-09-19T07:46:22;100450.72;;;14.82;100.00
48553;BME280;34335;51.566;6.994;2023-09-19T07:48:48;100447.00;;;14.92;100.00
48553;BME280;34335;51.566;6.994;2023-09-19T07:51:13;100453.19;;;14.89;100.00
48553;BME280;34335;51.566;6.994;2023-09-19T07:53:38;100454.97;;;14.89;100.00
48553;BME280;34335;51.566;6.994;2023-09-19T07:56:04;100446.84;;;15.00;100.00
48553;BME280;34335;51.566;6.994;2023-09-19T07:58:30;100452.13;;;14.98;100.00
48553;BME280;34335;51.566;6.994;2023-09-19T08:00:55;100455.56;;;15.00;100.00
48553;BME280;34335;51.566;6.994;2023-09-19T08:03:21;100467.63;;;15.06;100.00
48553;BME280;34335;51.566;6.994;2023-09-19T08:05:46;100462.41;;;15.06;100.00
48553;BME280;34335;51.566;6.994;2023-09-19T08:08:11;100468.63;;;15.02;100.00
48553;BME280;34335;51.566;6.994;2023-09-19T08:10:37;100472.81;;;15.09;100.00
48553;BME280;34335;51.566;6.994;2023-09-19T08:13:02;100468.25;;;15.17;100.00
48553;BME280;34335;51.566;6.994;2023-09-19T08:15:27;100477.00;;;15.18;100.00
48553;BME280;34335;51.566;6.994;2023-09-19T08:17:53;100480.22;;;15.29;100.00
48553;BME280;34335;51.566;6.994;2023-09-19T08:20:18;100470.41;;;15.36;100.00
48553;BME280;34335;51.566;6.994;2023-09-19T08:22:47;100476.50;;;15.38;100.00
48553;BME280;34335;51.566;6.994;2023-09-19T08:25:13;100481.66;;;15.41;100.00
48553;BME280;34335;51.566;6.994;2023-09-19T08:27:38;100481.72;;;15.38;100.00
48553;BME280;34335;51.566;6.994;2023-09-19T08:30:04;100477.38;;;15.38;100.00
48553;BME280;34335;51.566;6.994;2023-09-19T08:32:29;100483.06;;;15.54;100.00
48553;BME280;34335;51.566;6.994;2023-09-19T08:34:54;100474.72;;;15.73;100.00
48553;BME280;34335;51.566;6.994;2023-09-19T08:37:20;100472.47;;;15.94;100.00
48553;BME280;34335;51.566;6.994;2023-09-19T08:39:45;100478.53;;;15.96;100.00
48553;BME280;34335;51.566;6.994;2023-09-19T08:42:11;100486.66;;;16.19;100.00
48553;BME280;34335;51.566;6.994;2023-09-19T08:44:37;100494.81;;;16.09;100.00
48553;BME280;34335;51.566;6.994;2023-09-19T08:49:43;100486.16;;;16.05;100.00
48553;BME280;34335;51.566;6.994;2023-09-19T08:52:21;100485.50;;;15.97;100.00
48553;BME280;34335;51.566;6.994;2023-09-19T08:54:48;100496.84;;;15.99;100.00
48553;BME280;34335;51.566;6.994;2023-09-19T08:57:16;100484.56;;;15.99;100.00
48553;BME280;34335;51.566;6.994;2023-09-19T08:59:43;100487.06;;;16.04;100.00
48553;BME280;34335;51.566;6.994;2023-09-19T09:02:11;100499.03;;;16.14;100.00
48553;BME280;34335;51.566;6.994;2023-09-19T09:04:39;100491.78;;;16.24;100.00
48553;BME280;34335;51.566;6.994;2023-09-19T09:07:10;100496.91;;;16.29;100.00
48553;BME280;34335;51.566;6.994;2023-09-19T09:09:35;100486.03;;;16.41;100.00
48553;BME280;34335;51.566;6.994;2023-09-19T09:12:02;100477.03;;;16.50;100.00
48553;BME280;34335;51.566;6.994;2023-09-19T09:14:28;100473.78;;;16.72;100.00
48553;BME280;34335;51.566;6.994;2023-09-19T09:16:55;100478.00;;;16.77;100.00
48553;BME280;34335;51.566;6.994;2023-09-19T09:19:20;100481.13;;;16.89;100.00
48553;BME280;34335;51.566;6.994;2023-09-19T09:21:45;100479.19;;;16.97;100.00
48553;BME280;34335;51.566;6.994;2023-09-19T09:24:26;100487.91;;;16.97;100.00
48553;BME280;34335;51.566;6.994;2023-09-19T09:26:52;100468.56;;;17.00;100.00
48553;BME280;34335;51.566;6.994;2023-09-19T09:29:51;100466.84;;;16.99;100.00
48553;BME280;34335;51.566;6.994;2023-09-19T09:32:24;100470.19;;;17.04;100.00
48553;BME280;34335;51.566;6.994;2023-09-19T09:34:53;100466.47;;;16.81;100.00
48553;BME280;34335;51.566;6.994;2023-09-19T09:37:20;100466.44;;;17.11;100.00
48553;BME280;34335;51.566;6.994;2023-09-19T09:39:56;100479.81;;;17.04;100.00
48553;BME280;34335;51.566;6.994;2023-09-19T09:42:36;100481.06;;;17.20;100.00
48553;BME280;34335;51.566;6.994;2023-09-19T09:45:20;100482.75;;;16.93;100.00
48553;BME280;34335;51.566;6.994;2023-09-19T09:47:49;100477.25;;;17.02;100.00
48553;BME280;34335;51.566;6.994;2023-09-19T09:50:24;100473.28;;;17.17;100.00
48553;BME280;34335;51.566;6.994;2023-09-19T09:52:49;100478.78;;;17.09;100.00
48553;BME280;34335;51.566;6.994;2023-09-19T09:55:15;100477.50;;;16.93;100.00
48553;BME280;34335;51.566;6.994;2023-09-19T09:57:40;100470.38;;;16.98;100.00
48553;BME280;34335;51.566;6.994;2023-09-19T10:00:06;100491.19;;;16.74;100.00
48553;BME280;34335;51.566;6.994;2023-09-19T10:02:37;100494.94;;;16.97;100.00
48553;BME280;34335;51.566;6.994;2023-09-19T10:05:14;100467.88;;;17.22;100.00
48553;BME280;34335;51.566;6.994;2023-09-19T10:07:40;100481.81;;;17.24;100.00
48553;BME280;34335;51.566;6.994;2023-09-19T10:10:08;100483.09;;;17.12;100.00
48553;BME280;34335;51.566;6.994;2023-09-19T10:12:43;100483.47;;;17.00;100.00
48553;BME280;34335;51.566;6.994;2023-09-19T10:15:11;100475.91;;;17.17;100.00
48553;BME280;34335;51.566;6.994;2023-09-19T10:17:39;100482.34;;;17.35;100.00
48553;BME280;34335;51.566;6.994;2023-09-19T10:20:07;100461.41;;;17.84;100.00
48553;BME280;34335;51.566;6.994;2023-09-19T10:22:34;100463.56;;;17.98;100.00
48553;BME280;34335;51.566;6.994;2023-09-19T10:24:59;100466.19;;;18.24;100.00
48553;BME280;34335;51.566;6.994;2023-09-19T10:27:26;100455.13;;;18.37;100.00
48553;BME280;34335;51.566;6.994;2023-09-19T10:29:52;100455.31;;;18.33;100.00
48553;BME280;34335;51.566;6.994;2023-09-19T10:32:18;100452.84;;;18.28;100.00
48553;BME280;34335;51.566;6.994;2023-09-19T10:34:43;100448.72;;;18.21;100.00
48553;BME280;34335;51.566;6.994;2023-09-19T10:37:12;100449.34;;;18.04;100.00
48553;BME280;34335;51.566;6.994;2023-09-19T10:39:39;100452.06;;;17.75;100.00
48553;BME280;34335;51.566;6.994;2023-09-19T10:42:06;100453.78;;;17.76;100.00
48553;BME280;34335;51.566;6.994;2023-09-19T10:44:37;100449.09;;;17.85;100.00
48553;BME280;34335;51.566;6.994;2023-09-19T10:47:06;100452.25;;;17.96;100.00
48553;BME280;34335;51.566;6.994;2023-09-19T10:49:31;100440.28;;;17.86;100.00
48553;BME280;34335;51.566;6.994;2023-09-19T10:51:59;100432.00;;;17.98;100.00
48553;BME280;34335;51.566;6.994;2023-09-19T10:54:30;100432.06;;;18.44;100.00
48553;BME280;34335;51.566;6.994;2023-09-19T10:56:58;100431.28;;;18.87;100.00
48553;BME280;34335;51.566;6.994;2023-09-19T10:59:24;100448.56;;;18.72;100.00
48553;BME280;34335;51.566;6.994;2023-09-19T11:01:52;100445.16;;;18.92;100.00
48553;BME280;34335;51.566;6.994;2023-09-19T11:09:53;100452.34;;;19.53;100.00
48553;BME280;34335;51.566;6.994;2023-09-19T11:14:56;100441.22;;;19.67;100.00
48553;BME280;34335;51.566;6.994;2023-09-19T11:17:32;100435.06;;;19.46;100.00
48553;BME280;34335;51.566;6.994;2023-09-19T11:30:44;100446.38;;;18.83;100.00
48553;BME280;34335;51.566;6.994;2023-09-19T11:33:17;100460.09;;;18.91;100.00
48553;BME280;34335;51.566;6.994;2023-09-19T11:36:01;100430.97;;;19.59;100.00
48553;BME280;34335;51.566;6.994;2023-09-19T11:43:54;100455.00;;;19.10;100.00
48553;BME280;34335;51.566;6.994;2023-09-19T11:49:16;100478.38;;;19.40;96.94
48553;BME280;34335;51.566;6.994;2023-09-19T11:51:43;100444.41;;;19.33;100.00
48553;BME280;34335;51.566;6.994;2023-09-19T11:54:11;100445.22;;;19.55;99.23
48553;BME280;34335;51.566;6.994;2023-09-19T11:56:40;100432.09;;;19.95;100.00
48553;BME280;34335;51.566;6.994;2023-09-19T11:59:06;100426.13;;;19.91;97.04
48553;BME280;34335;51.566;6.994;2023-09-19T12:01:32;100423.22;;;19.56;100.00
48553;BME280;34335;51.566;6.994;2023-09-19T12:03:59;100421.47;;;19.14;100.00
48553;BME280;34335;51.566;6.994;2023-09-19T12:06:29;100424.53;;;19.46;100.00
48553;BME280;34335;51.566;6.994;2023-09-19T12:08:57;100426.50;;;19.82;99.84
48553;BME280;34335;51.566;6.994;2023-09-19T12:11:22;100422.88;;;19.64;100.00
48553;BME280;34335;51.566;6.994;2023-09-19T12:13:48;100420.00;;;20.10;98.97
48553;BME280;34335;51.566;6.994;2023-09-19T12:16:20;100416.09;;;20.57;94.00
48553;BME280;34335;51.566;6.994;2023-09-19T12:18:49;100427.28;;;20.05;96.05
48553;BME280;34335;51.566;6.994;2023-09-19T12:21:25;100403.16;;;19.93;96.88
48553;BME280;34335;51.566;6.994;2023-09-19T12:26:27;100408.44;;;19.73;94.47
48553;BME280;34335;51.566;6.994;2023-09-19T12:28:54;100407.97;;;20.23;88.08
48553;BME280;34335;51.566;6.994;2023-09-19T12:31:19;100401.22;;;20.54;89.48
48553;BME280;34335;51.566;6.994;2023-09-19T12:33:44;100400.72;;;20.84;86.55
48553;BME280;34335;51.566;6.994;2023-09-19T12:36:36;100404.16;;;20.67;89.99
48553;BME280;34335;51.566;6.994;2023-09-19T12:39:01;100392.03;;;21.53;86.54
48553;BME280;34335;51.566;6.994;2023-09-19T12:41:27;100388.66;;;20.60;88.67
48553;BME280;34335;51.566;6.994;2023-09-19T12:43:53;100395.28;;;20.88;83.50
48553;BME280;34335;51.566;6.994;2023-09-19T12:46:22;100380.84;;;20.39;86.28
48553;BME280;34335;51.566;6.994;2023-09-19T12:49:16;100390.94;;;20.86;85.13
48553;BME280;34335;51.566;6.994;2023-09-19T12:51:45;100390.75;;;21.44;88.22
48553;BME280;34335;51.566;6.994;2023-09-19T12:54:11;100402.50;;;21.21;80.02
48553;BME280;34335;51.566;6.994;2023-09-19T12:56:40;100377.13;;;21.16;77.45
48553;BME280;34335;51.566;6.994;2023-09-19T12:59:12;100398.94;;;20.66;84.70
48553;BME280;34335;51.566;6.994;2023-09-19T13:01:39;100384.91;;;21.20;81.79
48553;BME280;34335;51.566;6.994;2023-09-19T13:06:46;100414.25;;;20.96;79.91
48553;BME280;34335;51.566;6.994;2023-09-19T13:09:12;100392.03;;;20.44;84.64
48553;BME280;34335;51.566;6.994;2023-09-19T13:11:38;100381.38;;;21.01;82.64
48553;BME280;34335;51.566;6.994;2023-09-19T13:14:26;100388.47;;;21.54;83.29
48553;BME280;34335;51.566;6.994;2023-09-19T13:16:58;100384.94;;;22.04;86.51
48553;BME280;34335;51.566;6.994;2023-09-19T13:19:44;100391.19;;;21.70;79.38
48553;BME280;34335;51.566;6.994;2023-09-19T13:22:42;100416.06;;;21.48;79.05
48553;BME280;34335;51.566;6.994;2023-09-19T13:25:09;100382.94;;;21.41;86.71
48553;BME280;34335;51.566;6.994;2023-09-19T13:27:35;100388.16;;;21.60;79.37